Anderson, Missouri
Current Conditions -  °F | °C
As of 6:15 AM on Friday 28 Nov 2014 (Local Time) from KGMJ Reporting Station
Clear Clear  
Wind Chill:   Ceiling: Unl
Heat Index:   Visibility: 10mi
Dew Point: -2°   Wind: 12mph
Humidity: 57%   Direction: 180°S
Pressure: 30.18"   Gusts: 17mph
Location:  36.65°N, 94.44°W
Report Text: KGMJ 281215Z AUTO 18010G15KT 10SM CLR 06/M02 A3018 RMK AO2
Loading
Personal Weather Stations






























Interactive Weather Map New forecast layout! Learn more

10-Day Weather Forecast

Advertisements
Track Severe Weather on mobile